메인 페이지
METAR-TAF:

METAR-TAF

공항 :

Little Rock Air Force Base

잭슨빌, 아칸소, 미국

위도: 34-55N, 경도: 092-09W, 고도: 95m

현재 날씨관측

예보는 50분 전, 13:56시(UTC)에 발표되었습니다.
4kt
온도 26°C
습도 84%
기압 1017 hPa
시정: 16.1km
맑음

METAR: KLRF 251356Z AUTO 19004KT 10SM CLR 26/23 A3003 RMK AO2 SLP169 T02610227 $

시각: 09:46 (14:46 UTC)

예보

예보는 7 시간 46분 전, 07:00시(UTC)에 발표되었습니다.
예보 대상 시간: 25일 07시부터 26일 13시까지 (UTC)
kt
시정 10km 이상
고도 25000ft 상공 구름 많음
전환 중
25일 11시부터 25일 12시까지 (UTC)
4kt
시정 10km 이상
고도 1500ft 상공 구름 보통
고도 20000ft 상공 흐림
전환 중
25일 15시부터 25일 16시까지 (UTC)
남남서8kt
시정: 8000m
고도 3000ft 상공 구름 많음
고도 6000ft 상공 흐림
소나기
일시적
25일 18시부터 25일 23시까지 (UTC)
남남서15kt, 순간 최대 풍속 25kt
시정: 6000m
고도 2000ft 상공 구름 많음, 적란운.
고도 6000ft 상공 흐림
뇌우, 비
전환 중
25일 23시부터 25일 24시까지 (UTC)
9kt
시정 10km 이상
고도 3000ft 상공 구름 보통

TAF: KLRF 250700Z 2507/2613 00000KT 9999 BKN250 QNH2994INS BECMG 2511/2512 17004KT 9999 SCT015 OVC200 QNH3000INS BECMG 2515/2516 20008KT 8000 SHRA BKN030 OVC060 QNH3000INS TEMPO 2518/2523 20015G25KT 6000 TSRA BKN020CB OVC060 BECMG 2523/2524 18009KT 9999 NSW SCT030 QNH3002INS TX32/2521Z TN20/2509Z

4,000개 이상의 공항 관측 자료 및 예보 (METAR 및 TAF 보고).

지도상에서 검색 가능한 기상관측소가 노란 점과 빨간 점으로 표시되어 있습니다.

기상관측소 명을 보려면 표시 위로 마우스를 이동하세요.

날씨 관측과 예보를 보려면 클릭하세요.

지도 변경 : 확대하려면 엑스 표시가 있는 녹색 버튼, 축소하려면 빼기 표시가 있는 녹색 버튼, 다음 페이지의 지도를 보려면 녹색 화살표를 클릭하세요.


METAR-TAF: